»·PEaware :: DAL820 KSLC-KJAC

DAL820 :: KSLC-KJAC

FLIGHT INFORMATION

Flight Status: Arrived
Operator:
Delta Air Lines
More flights by this operator :: More flights under this callsign
Pilot: Drew L. (13237)
Aircraft: AIRBUS A320
(A320)
More flights by this aircraft type
Origin: KSLC Salt Lake City Intl
United States
Destination: KJAC Jackson Hole
United States
More flights between these airports :: More routes between these airports
Route: +LEETZ6 HOLTR
File this flight plan on PilotEdge
Remarks: PBN / A1B1C1D1O1S1 DOF / 180414 REG / N320SB OPR / DAL PER / C RMK / TCAS SIMBRIEF
Altitude:
(Current/Filed)
26,000ft
Speed:
(Current/Filed)
439kts
Departed: 13-Apr-18 09:09 PM
Arrived: 13-Apr-18 09:53 PM
Distance/Time
Traveled:
178nm/0:44
Distance/Time
To Go:
Arrived

Flight Plot

Page will automatically refresh every two minutes.

Flight plan parsing failed; only flown route is shown


Map Options




Map Legend


Flown Route
Filed Route
Departure Airport
Arrival Airport
Navaid (VOR, NDB)
Fix

Horizontal Profiles

Position Reports

Time Latitude Longitude Heading Altitude Ground
Speed
13-Apr-18 20:36 40.788452 -111.985372 71 4236ft 0kts
13-Apr-18 20:37 40.788452 -111.985372 71 4236ft 0kts
13-Apr-18 20:38 40.788452 -111.985372 71 4236ft 0kts
13-Apr-18 20:39 40.788452 -111.985372 71 4236ft 0kts
13-Apr-18 20:40 40.788452 -111.985372 71 4236ft 0kts
13-Apr-18 20:41 40.788452 -111.985372 71 4236ft 0kts
13-Apr-18 20:42 40.788452 -111.985372 71 4236ft 0kts
13-Apr-18 20:43 40.788452 -111.985372 71 4236ft 0kts
13-Apr-18 20:44 40.788452 -111.985372 71 4236ft 0kts
13-Apr-18 20:45 40.788452 -111.985372 71 4236ft 0kts
13-Apr-18 20:46 40.788452 -111.985372 71 4236ft 0kts
13-Apr-18 20:47 40.788452 -111.985372 71 4236ft 0kts
13-Apr-18 20:48 40.788452 -111.985372 71 4236ft 0kts
13-Apr-18 20:49 40.788452 -111.985373 71 4236ft 0kts
13-Apr-18 20:50 40.788452 -111.985373 71 4236ft 0kts
13-Apr-18 20:51 40.788452 -111.985373 71 4236ft 0kts
13-Apr-18 20:52 40.788452 -111.985373 71 4236ft 0kts
13-Apr-18 20:53 40.788383 -111.985651 72 4236ft 2kts
13-Apr-18 20:54 40.788118 -111.986239 28 4236ft 2kts
13-Apr-18 20:55 40.787701 -111.986264 339 4236ft 0kts
13-Apr-18 20:56 40.787702 -111.986264 339 4236ft 0kts
13-Apr-18 20:57 40.787857 -111.986340 341 4236ft 0kts
13-Apr-18 20:58 40.788283 -111.986465 350 4236ft 2kts
13-Apr-18 20:59 40.789242 -111.986513 22 4236ft 8kts
13-Apr-18 21:00 40.790901 -111.986160 355 4236ft 0kts
13-Apr-18 21:01 40.790902 -111.986160 355 4236ft 0kts
13-Apr-18 21:02 40.791965 -111.990537 265 4236ft 20kts
13-Apr-18 21:03 40.792756 -111.995344 354 4236ft 17kts
13-Apr-18 21:04 40.799034 -111.996105 356 4236ft 27kts
13-Apr-18 21:05 40.806645 -111.996981 354 4236ft 20kts
13-Apr-18 21:06 40.807703 -111.997575 274 4236ft 0kts
13-Apr-18 21:07 40.807625 -111.999066 259 4236ft 10kts
13-Apr-18 21:08 40.782728 -111.996159 176 5017ft 171kts
13-Apr-18 21:09 40.752905 -112.035037 259 7805ft 203kts
13-Apr-18 21:10 40.783544 -112.103531 317 10212ft 242kts
13-Apr-18 21:11 40.834374 -112.163881 337 12303ft 260kts
13-Apr-18 21:12 40.906568 -112.148767 12 15395ft 279kts
13-Apr-18 21:13 40.981279 -112.120103 11 18453ft 285kts
13-Apr-18 21:14 41.048736 -112.074117 39 20891ft 314kts
13-Apr-18 21:15 41.107172 -111.988385 38 23124ft 325kts
13-Apr-18 21:16 41.167768 -111.899273 37 24353ft 331kts
13-Apr-18 21:17 41.245242 -111.846080 11 25978ft 326kts
13-Apr-18 21:18 41.332024 -111.806507 11 27448ft 345kts
13-Apr-18 21:19 41.429558 -111.762240 12 27449ft 391kts
13-Apr-18 21:20 41.532637 -111.715368 11 27443ft 393kts
13-Apr-18 21:21 41.636072 -111.668241 12 27439ft 393kts
13-Apr-18 21:22 41.739002 -111.621176 12 27436ft 393kts
13-Apr-18 21:23 41.842227 -111.573811 12 27434ft 393kts
13-Apr-18 21:24 41.945500 -111.526263 12 27436ft 393kts
13-Apr-18 21:25 42.048463 -111.478695 12 27438ft 393kts
13-Apr-18 21:26 42.150652 -111.431277 11 27169ft 376kts
13-Apr-18 21:27 42.242859 -111.388414 11 26316ft 339kts
13-Apr-18 21:28 42.331071 -111.347291 12 25423ft 334kts
13-Apr-18 21:29 42.418475 -111.306383 12 24526ft 332kts
13-Apr-18 21:30 42.503777 -111.266354 12 23647ft 330kts
13-Apr-18 21:31 42.589857 -111.225845 13 22759ft 327kts
13-Apr-18 21:32 42.675357 -111.185490 13 21877ft 325kts
13-Apr-18 21:33 42.759935 -111.145453 13 21002ft 322kts
13-Apr-18 21:34 42.843919 -111.105164 14 20116ft 320kts
13-Apr-18 21:35 42.927405 -111.064900 14 19194ft 322kts
13-Apr-18 21:36 43.008855 -111.008967 32 18067ft 342kts
13-Apr-18 21:37 43.082588 -110.929849 32 16441ft 325kts
13-Apr-18 21:38 43.148604 -110.861280 32 15066ft 276kts
13-Apr-18 21:39 43.207480 -110.804198 15 14519ft 236kts
13-Apr-18 21:40 43.268024 -110.779068 12 14044ft 226kts
13-Apr-18 21:41 43.327994 -110.754605 12 14042ft 225kts
13-Apr-18 21:42 43.386214 -110.730528 12 14020ft 208kts
13-Apr-18 21:43 43.444660 -110.706352 12 14017ft 222kts
13-Apr-18 21:44 43.503641 -110.682038 12 13640ft 220kts
13-Apr-18 21:45 43.562476 -110.658510 12 13019ft 222kts
13-Apr-18 21:46 43.621400 -110.635165 12 13016ft 220kts
13-Apr-18 21:47 43.675875 -110.613115 12 12679ft 195kts
13-Apr-18 21:48 43.721972 -110.618022 294 10882ft 187kts
13-Apr-18 21:49 43.698690 -110.675156 228 9489ft 165kts
13-Apr-18 21:50 43.662970 -110.710472 200 7745ft 161kts
13-Apr-18 21:51 43.623437 -110.729848 201 6665ft 149kts
13-Apr-18 21:52 43.600226 -110.741221 190 6460ft 16kts
13-Apr-18 21:53 43.602086 -110.738736 19 6460ft 15kts
13-Apr-18 21:54 43.603493 -110.737111 109 6460ft 0kts
13-Apr-18 21:55 43.603493 -110.737111 109 6460ft 0kts

Navigation Log

Ident Type
Flight plan parsing failed, navigation log unavailable